sensor_id;sensor_type;location;lat;lon;timestamp;P1;P2;P0
70197;PMS5003;57582;-34.876;138.628;2022-10-23T00:00:43;5.23;4.97;3.13
70197;PMS5003;57582;-34.876;138.628;2022-10-23T00:03:44;5.10;4.70;3.30
70197;PMS5003;57582;-34.876;138.628;2022-10-23T00:06:43;4.93;4.80;3.63
70197;PMS5003;57582;-34.876;138.628;2022-10-23T00:09:42;5.33;4.63;3.10
70197;PMS5003;57582;-34.876;138.628;2022-10-23T00:12:43;5.07;4.70;3.00
70197;PMS5003;57582;-34.876;138.628;2022-10-23T00:15:43;6.03;4.70;2.80
70197;PMS5003;57582;-34.876;138.628;2022-10-23T00:18:42;4.03;3.50;2.23
70197;PMS5003;57582;-34.876;138.628;2022-10-23T00:21:42;6.67;4.23;3.53
70197;PMS5003;57582;-34.876;138.628;2022-10-23T00:24:43;5.20;4.83;3.37
70197;PMS5003;57582;-34.876;138.628;2022-10-23T00:27:45;4.27;4.27;2.87
70197;PMS5003;57582;-34.876;138.628;2022-10-23T00:30:42;3.03;3.03;2.30
70197;PMS5003;57582;-34.876;138.628;2022-10-23T00:33:43;3.37;3.37;1.97
70197;PMS5003;57582;-34.876;138.628;2022-10-23T00:36:43;3.93;3.93;1.77
70197;PMS5003;57582;-34.876;138.628;2022-10-23T00:39:43;3.93;3.07;1.80
70197;PMS5003;57582;-34.876;138.628;2022-10-23T00:42:42;3.67;3.00;2.00
70197;PMS5003;57582;-34.876;138.628;2022-10-23T00:45:42;3.53;2.77;1.47
70197;PMS5003;57582;-34.876;138.628;2022-10-23T00:48:43;2.87;2.87;1.60
70197;PMS5003;57582;-34.876;138.628;2022-10-23T00:51:49;3.60;3.60;1.83
70197;PMS5003;57582;-34.876;138.628;2022-10-23T00:54:43;1.57;1.57;0.40
70197;PMS5003;57582;-34.876;138.628;2022-10-23T00:57:44;2.60;2.00;1.00
70197;PMS5003;57582;-34.876;138.628;2022-10-23T01:00:46;1.43;1.40;0.83
70197;PMS5003;57582;-34.876;138.628;2022-10-23T01:03:43;1.20;0.87;0.57
70197;PMS5003;57582;-34.876;138.628;2022-10-23T01:06:56;2.60;1.20;0.43
70197;PMS5003;57582;-34.876;138.628;2022-10-23T01:13:14;0.47;0.47;0.20
70197;PMS5003;57582;-34.876;138.628;2022-10-23T01:15:51;0.93;0.93;0.30
70197;PMS5003;57582;-34.876;138.628;2022-10-23T01:18:47;3.27;1.90;1.03
70197;PMS5003;57582;-34.876;138.628;2022-10-23T01:25:00;0.93;0.93;0.00
70197;PMS5003;57582;-34.876;138.628;2022-10-23T01:27:48;0.07;0.07;0.00
70197;PMS5003;57582;-34.876;138.628;2022-10-23T01:30:44;1.63;1.63;0.33
70197;PMS5003;57582;-34.876;138.628;2022-10-23T01:33:48;0.00;0.00;0.00
70197;PMS5003;57582;-34.876;138.628;2022-10-23T01:36:47;2.77;1.73;0.77
70197;PMS5003;57582;-34.876;138.628;2022-10-23T01:39:47;0.13;0.13;0.00
70197;PMS5003;57582;-34.876;138.628;2022-10-23T01:42:47;1.00;1.00;0.00
70197;PMS5003;57582;-34.876;138.628;2022-10-23T01:45:46;0.93;0.93;0.00
70197;PMS5003;57582;-34.876;138.628;2022-10-23T01:48:50;0.67;0.03;0.00
70197;PMS5003;57582;-34.876;138.628;2022-10-23T01:51:46;0.80;0.17;0.00
70197;PMS5003;57582;-34.876;138.628;2022-10-23T01:54:44;2.33;1.63;0.53
70197;PMS5003;57582;-34.876;138.628;2022-10-23T01:57:44;2.57;1.83;0.77
70197;PMS5003;57582;-34.876;138.628;2022-10-23T02:00:44;1.30;1.30;0.83
70197;PMS5003;57582;-34.876;138.628;2022-10-23T02:03:44;1.03;1.03;0.17
70197;PMS5003;57582;-34.876;138.628;2022-10-23T02:06:43;1.00;1.00;0.87
70197;PMS5003;57582;-34.876;138.628;2022-10-23T02:09:43;0.60;0.60;0.43
70197;PMS5003;57582;-34.876;138.628;2022-10-23T02:15:47;1.53;1.53;0.80
70197;PMS5003;57582;-34.876;138.628;2022-10-23T02:18:54;1.90;1.90;1.40
70197;PMS5003;57582;-34.876;138.628;2022-10-23T02:27:48;1.00;1.00;0.37
70197;PMS5003;57582;-34.876;138.628;2022-10-23T02:30:45;1.00;0.97;0.37
70197;PMS5003;57582;-34.876;138.628;2022-10-23T02:33:44;0.90;0.90;0.23
70197;PMS5003;57582;-34.876;138.628;2022-10-23T02:36:44;1.67;1.53;0.97
70197;PMS5003;57582;-34.876;138.628;2022-10-23T02:39:43;1.30;1.17;0.83
70197;PMS5003;57582;-34.876;138.628;2022-10-23T02:42:57;0.93;0.93;0.17
70197;PMS5003;57582;-34.876;138.628;2022-10-23T02:45:50;0.90;0.90;0.23
70197;PMS5003;57582;-34.876;138.628;2022-10-23T02:48:52;1.13;0.60;0.23
70197;PMS5003;57582;-34.876;138.628;2022-10-23T02:51:54;0.67;0.67;0.00
70197;PMS5003;57582;-34.876;138.628;2022-10-23T02:54:50;0.73;0.73;0.03
70197;PMS5003;57582;-34.876;138.628;2022-10-23T02:57:55;1.00;1.00;0.03
70197;PMS5003;57582;-34.876;138.628;2022-10-23T03:00:48;1.20;1.20;0.73
70197;PMS5003;57582;-34.876;138.628;2022-10-23T03:03:49;1.93;1.00;0.23
70197;PMS5003;57582;-34.876;138.628;2022-10-23T03:06:43;1.13;1.13;0.23
70197;PMS5003;57582;-34.876;138.628;2022-10-23T03:09:44;0.63;0.63;0.03
70197;PMS5003;57582;-34.876;138.628;2022-10-23T03:12:43;0.87;0.87;0.10
70197;PMS5003;57582;-34.876;138.628;2022-10-23T03:15:44;0.70;0.70;0.07
70197;PMS5003;57582;-34.876;138.628;2022-10-23T03:18:43;0.40;0.40;0.30
70197;PMS5003;57582;-34.876;138.628;2022-10-23T03:21:43;0.00;0.00;0.00
70197;PMS5003;57582;-34.876;138.628;2022-10-23T03:24:43;0.47;0.47;0.03
70197;PMS5003;57582;-34.876;138.628;2022-10-23T03:27:44;0.03;0.03;0.00
70197;PMS5003;57582;-34.876;138.628;2022-10-23T03:30:43;0.30;0.03;0.00
70197;PMS5003;57582;-34.876;138.628;2022-10-23T03:33:43;0.57;0.57;0.00
70197;PMS5003;57582;-34.876;138.628;2022-10-23T03:36:44;0.13;0.13;0.00
70197;PMS5003;57582;-34.876;138.628;2022-10-23T03:39:45;0.00;0.00;0.00
70197;PMS5003;57582;-34.876;138.628;2022-10-23T03:42:43;0.70;0.70;0.00
70197;PMS5003;57582;-34.876;138.628;2022-10-23T03:45:43;0.50;0.50;0.00
70197;PMS5003;57582;-34.876;138.628;2022-10-23T03:48:44;0.00;0.00;0.00
70197;PMS5003;57582;-34.876;138.628;2022-10-23T03:51:44;0.03;0.03;0.00
70197;PMS5003;57582;-34.876;138.628;2022-10-23T03:54:43;0.47;0.47;0.00
70197;PMS5003;57582;-34.876;138.628;2022-10-23T03:57:43;1.17;1.17;0.23
70197;PMS5003;57582;-34.876;138.628;2022-10-23T04:00:44;0.80;0.80;0.33
70197;PMS5003;57582;-34.876;138.628;2022-10-23T04:03:43;0.13;0.13;0.00
70197;PMS5003;57582;-34.876;138.628;2022-10-23T04:06:43;0.13;0.13;0.00
70197;PMS5003;57582;-34.876;138.628;2022-10-23T04:09:43;0.33;0.33;0.00
70197;PMS5003;57582;-34.876;138.628;2022-10-23T04:12:43;0.00;0.00;0.00
70197;PMS5003;57582;-34.876;138.628;2022-10-23T04:15:47;0.83;0.83;0.23
70197;PMS5003;57582;-34.876;138.628;2022-10-23T04:18:43;1.13;0.40;0.00
70197;PMS5003;57582;-34.876;138.628;2022-10-23T04:21:43;0.77;0.77;0.00
70197;PMS5003;57582;-34.876;138.628;2022-10-23T04:24:43;0.03;0.03;0.00
70197;PMS5003;57582;-34.876;138.628;2022-10-23T04:27:43;0.53;0.53;0.23
70197;PMS5003;57582;-34.876;138.628;2022-10-23T04:30:43;1.10;1.10;0.27
70197;PMS5003;57582;-34.876;138.628;2022-10-23T04:33:43;0.40;0.40;0.00
70197;PMS5003;57582;-34.876;138.628;2022-10-23T04:36:43;1.00;1.00;0.37
70197;PMS5003;57582;-34.876;138.628;2022-10-23T04:39:44;0.57;0.57;0.00
70197;PMS5003;57582;-34.876;138.628;2022-10-23T04:42:43;1.00;1.00;0.00
70197;PMS5003;57582;-34.876;138.628;2022-10-23T04:45:43;0.87;0.87;0.27
70197;PMS5003;57582;-34.876;138.628;2022-10-23T04:48:43;0.00;0.00;0.00
70197;PMS5003;57582;-34.876;138.628;2022-10-23T04:51:43;1.97;1.97;1.10
70197;PMS5003;57582;-34.876;138.628;2022-10-23T04:54:43;0.53;0.53;0.20
70197;PMS5003;57582;-34.876;138.628;2022-10-23T04:57:43;0.03;0.03;0.00
70197;PMS5003;57582;-34.876;138.628;2022-10-23T05:00:44;1.13;1.13;0.40
70197;PMS5003;57582;-34.876;138.628;2022-10-23T05:03:43;0.73;0.73;0.23
70197;PMS5003;57582;-34.876;138.628;2022-10-23T05:06:43;1.37;1.37;1.00
70197;PMS5003;57582;-34.876;138.628;2022-10-23T05:09:43;0.70;0.70;0.23
70197;PMS5003;57582;-34.876;138.628;2022-10-23T05:12:43;1.13;1.00;0.17
70197;PMS5003;57582;-34.876;138.628;2022-10-23T05:15:44;1.37;0.83;0.17
70197;PMS5003;57582;-34.876;138.628;2022-10-23T05:18:45;0.27;0.27;0.07
70197;PMS5003;57582;-34.876;138.628;2022-10-23T05:21:44;1.40;1.37;1.00
70197;PMS5003;57582;-34.876;138.628;2022-10-23T05:24:43;1.00;0.60;0.13
70197;PMS5003;57582;-34.876;138.628;2022-10-23T05:27:43;1.53;1.53;0.13
70197;PMS5003;57582;-34.876;138.628;2022-10-23T05:30:43;1.17;1.17;0.93
70197;PMS5003;57582;-34.876;138.628;2022-10-23T05:33:43;1.17;1.17;0.13
70197;PMS5003;57582;-34.876;138.628;2022-10-23T05:36:44;1.10;1.07;0.43
70197;PMS5003;57582;-34.876;138.628;2022-10-23T05:39:44;1.47;1.07;0.80
70197;PMS5003;57582;-34.876;138.628;2022-10-23T05:42:43;1.30;1.30;0.63
70197;PMS5003;57582;-34.876;138.628;2022-10-23T05:45:43;1.43;1.23;0.37
70197;PMS5003;57582;-34.876;138.628;2022-10-23T05:48:43;1.47;1.47;1.00
70197;PMS5003;57582;-34.876;138.628;2022-10-23T05:51:43;1.33;1.27;1.00
70197;PMS5003;57582;-34.876;138.628;2022-10-23T05:54:43;1.47;1.13;0.87
70197;PMS5003;57582;-34.876;138.628;2022-10-23T05:57:43;1.43;1.43;0.87
70197;PMS5003;57582;-34.876;138.628;2022-10-23T06:00:43;2.03;1.43;0.90
70197;PMS5003;57582;-34.876;138.628;2022-10-23T06:03:44;1.67;1.67;1.00
70197;PMS5003;57582;-34.876;138.628;2022-10-23T06:06:45;1.40;1.03;0.90
70197;PMS5003;57582;-34.876;138.628;2022-10-23T06:09:43;1.10;1.10;0.60
70197;PMS5003;57582;-34.876;138.628;2022-10-23T06:12:43;2.30;2.30;1.53
70197;PMS5003;57582;-34.876;138.628;2022-10-23T06:15:44;1.43;1.43;0.97
70197;PMS5003;57582;-34.876;138.628;2022-10-23T06:18:45;1.90;1.00;0.43
70197;PMS5003;57582;-34.876;138.628;2022-10-23T06:21:43;1.00;1.00;1.00
70197;PMS5003;57582;-34.876;138.628;2022-10-23T06:24:44;1.07;1.07;0.57
70197;PMS5003;57582;-34.876;138.628;2022-10-23T06:27:43;1.00;1.00;0.03
70197;PMS5003;57582;-34.876;138.628;2022-10-23T06:30:43;0.77;0.77;0.00
70197;PMS5003;57582;-34.876;138.628;2022-10-23T06:33:43;1.83;1.83;1.23
70197;PMS5003;57582;-34.876;138.628;2022-10-23T06:36:43;1.13;1.13;0.83
70197;PMS5003;57582;-34.876;138.628;2022-10-23T06:39:45;0.77;0.77;0.10
70197;PMS5003;57582;-34.876;138.628;2022-10-23T06:42:43;1.67;1.67;1.00
70197;PMS5003;57582;-34.876;138.628;2022-10-23T06:45:43;1.07;1.07;0.60
70197;PMS5003;57582;-34.876;138.628;2022-10-23T06:48:44;1.33;1.33;0.60
70197;PMS5003;57582;-34.876;138.628;2022-10-23T06:51:44;2.33;1.80;1.00
70197;PMS5003;57582;-34.876;138.628;2022-10-23T06:54:43;1.80;1.80;1.47
70197;PMS5003;57582;-34.876;138.628;2022-10-23T06:57:43;0.80;0.80;0.17
70197;PMS5003;57582;-34.876;138.628;2022-10-23T07:00:43;1.37;1.03;0.23
70197;PMS5003;57582;-34.876;138.628;2022-10-23T07:03:43;0.80;0.80;0.00
70197;PMS5003;57582;-34.876;138.628;2022-10-23T07:06:43;2.57;1.63;1.00
70197;PMS5003;57582;-34.876;138.628;2022-10-23T07:09:43;1.93;1.60;0.77
70197;PMS5003;57582;-34.876;138.628;2022-10-23T07:12:43;1.73;1.70;0.50
70197;PMS5003;57582;-34.876;138.628;2022-10-23T07:15:44;2.70;2.70;0.70
70197;PMS5003;57582;-34.876;138.628;2022-10-23T07:18:44;1.83;1.83;1.00
70197;PMS5003;57582;-34.876;138.628;2022-10-23T07:21:43;3.40;3.40;2.40
70197;PMS5003;57582;-34.876;138.628;2022-10-23T07:24:43;1.63;0.33;0.00
70197;PMS5003;57582;-34.876;138.628;2022-10-23T07:27:44;3.17;3.17;2.20
70197;PMS5003;57582;-34.876;138.628;2022-10-23T07:30:43;2.30;2.03;1.47
70197;PMS5003;57582;-34.876;138.628;2022-10-23T07:33:43;2.07;2.07;1.00
70197;PMS5003;57582;-34.876;138.628;2022-10-23T07:36:43;1.50;1.50;0.63
70197;PMS5003;57582;-34.876;138.628;2022-10-23T07:39:44;1.70;1.70;0.70
70197;PMS5003;57582;-34.876;138.628;2022-10-23T07:42:44;3.07;2.40;1.83
70197;PMS5003;57582;-34.876;138.628;2022-10-23T07:45:46;3.03;2.63;1.87
70197;PMS5003;57582;-34.876;138.628;2022-10-23T07:48:44;2.27;2.27;1.00
70197;PMS5003;57582;-34.876;138.628;2022-10-23T07:51:44;4.37;3.43;1.97
70197;PMS5003;57582;-34.876;138.628;2022-10-23T07:54:43;2.50;2.07;1.23
70197;PMS5003;57582;-34.876;138.628;2022-10-23T07:57:43;1.13;1.13;0.53
70197;PMS5003;57582;-34.876;138.628;2022-10-23T08:00:44;1.67;1.67;1.27
70197;PMS5003;57582;-34.876;138.628;2022-10-23T08:03:45;3.30;2.13;0.87
70197;PMS5003;57582;-34.876;138.628;2022-10-23T08:06:43;0.53;0.53;0.43
70197;PMS5003;57582;-34.876;138.628;2022-10-23T08:09:43;1.17;0.80;0.47
70197;PMS5003;57582;-34.876;138.628;2022-10-23T08:12:44;1.10;1.10;0.17
70197;PMS5003;57582;-34.876;138.628;2022-10-23T08:15:43;1.47;1.47;0.93
70197;PMS5003;57582;-34.876;138.628;2022-10-23T08:18:43;1.00;1.00;0.03
70197;PMS5003;57582;-34.876;138.628;2022-10-23T08:21:43;1.57;1.57;0.80
70197;PMS5003;57582;-34.876;138.628;2022-10-23T08:24:44;1.63;1.63;0.67
70197;PMS5003;57582;-34.876;138.628;2022-10-23T08:27:43;1.03;1.03;0.23
70197;PMS5003;57582;-34.876;138.628;2022-10-23T08:30:43;1.47;1.47;0.67
70197;PMS5003;57582;-34.876;138.628;2022-10-23T08:33:43;1.20;1.20;0.13
70197;PMS5003;57582;-34.876;138.628;2022-10-23T08:36:43;1.27;1.27;0.60
70197;PMS5003;57582;-34.876;138.628;2022-10-23T08:39:43;0.83;0.83;0.37
70197;PMS5003;57582;-34.876;138.628;2022-10-23T08:42:50;1.97;1.97;1.00
70197;PMS5003;57582;-34.876;138.628;2022-10-23T08:48:48;0.80;0.80;0.63
70197;PMS5003;57582;-34.876;138.628;2022-10-23T08:51:47;2.20;0.87;0.03
70197;PMS5003;57582;-34.876;138.628;2022-10-23T08:57:51;0.60;0.60;0.00
70197;PMS5003;57582;-34.876;138.628;2022-10-23T09:00:46;0.43;0.43;0.00
70197;PMS5003;57582;-34.876;138.628;2022-10-23T09:03:44;0.00;0.00;0.00
70197;PMS5003;57582;-34.876;138.628;2022-10-23T09:06:56;0.00;0.00;0.00
70197;PMS5003;57582;-34.876;138.628;2022-10-23T09:10:02;0.00;0.00;0.00
70197;PMS5003;57582;-34.876;138.628;2022-10-23T09:12:44;0.43;0.43;0.00
70197;PMS5003;57582;-34.876;138.628;2022-10-23T09:15:48;0.27;0.27;0.07
70197;PMS5003;57582;-34.876;138.628;2022-10-23T09:18:45;0.00;0.00;0.00
70197;PMS5003;57582;-34.876;138.628;2022-10-23T09:21:47;0.00;0.00;0.00
70197;PMS5003;57582;-34.876;138.628;2022-10-23T09:24:44;0.00;0.00;0.00
70197;PMS5003;57582;-34.876;138.628;2022-10-23T09:27:49;0.00;0.00;0.00
70197;PMS5003;57582;-34.876;138.628;2022-10-23T09:30:43;0.03;0.03;0.00
70197;PMS5003;57582;-34.876;138.628;2022-10-23T09:33:54;0.03;0.00;0.00
70197;PMS5003;57582;-34.876;138.628;2022-10-23T09:36:55;0.00;0.00;0.00
70197;PMS5003;57582;-34.876;138.628;2022-10-23T09:39:45;0.00;0.00;0.00
70197;PMS5003;57582;-34.876;138.628;2022-10-23T09:45:44;0.00;0.00;0.00
70197;PMS5003;57582;-34.876;138.628;2022-10-23T09:48:44;0.20;0.20;0.00
70197;PMS5003;57582;-34.876;138.628;2022-10-23T09:51:55;0.00;0.00;0.00
70197;PMS5003;57582;-34.876;138.628;2022-10-23T09:54:46;0.97;0.53;0.00
70197;PMS5003;57582;-34.876;138.628;2022-10-23T09:57:44;0.67;0.00;0.00
70197;PMS5003;57582;-34.876;138.628;2022-10-23T10:00:46;0.47;0.47;0.20
70197;PMS5003;57582;-34.876;138.628;2022-10-23T10:03:49;0.00;0.00;0.00
70197;PMS5003;57582;-34.876;138.628;2022-10-23T10:06:43;0.80;0.00;0.00
70197;PMS5003;57582;-34.876;138.628;2022-10-23T10:09:43;0.30;0.30;0.03
70197;PMS5003;57582;-34.876;138.628;2022-10-23T10:12:54;0.07;0.07;0.00
70197;PMS5003;57582;-34.876;138.628;2022-10-23T10:15:50;0.00;0.00;0.00
70197;PMS5003;57582;-34.876;138.628;2022-10-23T10:18:46;0.00;0.00;0.00
70197;PMS5003;57582;-34.876;138.628;2022-10-23T10:21:49;0.27;0.00;0.00
70197;PMS5003;57582;-34.876;138.628;2022-10-23T10:36:50;0.00;0.00;0.00
70197;PMS5003;57582;-34.876;138.628;2022-10-23T10:42:53;0.13;0.13;0.00
70197;PMS5003;57582;-34.876;138.628;2022-10-23T10:45:48;0.00;0.00;0.00
70197;PMS5003;57582;-34.876;138.628;2022-10-23T10:48:56;0.00;0.00;0.00
70197;PMS5003;57582;-34.876;138.628;2022-10-23T10:57:47;0.00;0.00;0.00
70197;PMS5003;57582;-34.876;138.628;2022-10-23T11:00:48;0.00;0.00;0.00
70197;PMS5003;57582;-34.876;138.628;2022-10-23T11:03:52;0.67;0.00;0.00
70197;PMS5003;57582;-34.876;138.628;2022-10-23T11:06:47;0.00;0.00;0.00
70197;PMS5003;57582;-34.876;138.628;2022-10-23T11:09:44;0.47;0.00;0.00
70197;PMS5003;57582;-34.876;138.628;2022-10-23T11:12:45;0.00;0.00;0.00
70197;PMS5003;57582;-34.876;138.628;2022-10-23T11:15:44;0.80;0.53;0.00
70197;PMS5003;57582;-34.876;138.628;2022-10-23T11:18:49;0.73;0.70;0.00
70197;PMS5003;57582;-34.876;138.628;2022-10-23T11:30:55;0.20;0.00;0.00
70197;PMS5003;57582;-34.876;138.628;2022-10-23T11:33:53;0.33;0.00;0.00
70197;PMS5003;57582;-34.876;138.628;2022-10-23T11:36:47;0.00;0.00;0.00
70197;PMS5003;57582;-34.876;138.628;2022-10-23T11:42:46;0.00;0.00;0.00
70197;PMS5003;57582;-34.876;138.628;2022-10-23T11:45:43;0.00;0.00;0.00
70197;PMS5003;57582;-34.876;138.628;2022-10-23T11:48:44;0.53;0.53;0.00
70197;PMS5003;57582;-34.876;138.628;2022-10-23T11:51:44;0.00;0.00;0.00
70197;PMS5003;57582;-34.876;138.628;2022-10-23T11:54:44;0.00;0.00;0.00
70197;PMS5003;57582;-34.876;138.628;2022-10-23T12:03:55;0.23;0.00;0.00
70197;PMS5003;57582;-34.876;138.628;2022-10-23T12:06:53;0.00;0.00;0.00
70197;PMS5003;57582;-34.876;138.628;2022-10-23T12:09:50;0.00;0.00;0.00
70197;PMS5003;57582;-34.876;138.628;2022-10-23T12:12:56;0.97;0.97;0.53
70197;PMS5003;57582;-34.876;138.628;2022-10-23T12:15:52;0.40;0.40;0.20
70197;PMS5003;57582;-34.876;138.628;2022-10-23T12:18:51;0.00;0.00;0.00
70197;PMS5003;57582;-34.876;138.628;2022-10-23T12:21:44;0.00;0.00;0.00
70197;PMS5003;57582;-34.876;138.628;2022-10-23T12:24:56;0.00;0.00;0.00
70197;PMS5003;57582;-34.876;138.628;2022-10-23T12:27:50;0.00;0.00;0.00
70197;PMS5003;57582;-34.876;138.628;2022-10-23T12:30:54;0.40;0.00;0.00
70197;PMS5003;57582;-34.876;138.628;2022-10-23T12:33:52;0.23;0.23;0.00
70197;PMS5003;57582;-34.876;138.628;2022-10-23T12:39:51;0.00;0.00;0.00
70197;PMS5003;57582;-34.876;138.628;2022-10-23T12:42:53;0.00;0.00;0.00
70197;PMS5003;57582;-34.876;138.628;2022-10-23T12:45:44;2.50;2.50;2.03
70197;PMS5003;57582;-34.876;138.628;2022-10-23T12:48:51;1.80;1.80;0.97
70197;PMS5003;57582;-34.876;138.628;2022-10-23T12:51:44;0.00;0.00;0.00
70197;PMS5003;57582;-34.876;138.628;2022-10-23T12:54:44;0.13;0.13;0.00
70197;PMS5003;57582;-34.876;138.628;2022-10-23T12:57:44;0.00;0.00;0.00
70197;PMS5003;57582;-34.876;138.628;2022-10-23T13:00:50;0.00;0.00;0.00
70197;PMS5003;57582;-34.876;138.628;2022-10-23T13:03:44;0.00;0.00;0.00
70197;PMS5003;57582;-34.876;138.628;2022-10-23T13:06:44;0.00;0.00;0.00
70197;PMS5003;57582;-34.876;138.628;2022-10-23T13:09:45;0.07;0.07;0.00
70197;PMS5003;57582;-34.876;138.628;2022-10-23T13:12:51;0.23;0.23;0.00
70197;PMS5003;57582;-34.876;138.628;2022-10-23T13:15:44;0.07;0.03;0.00
70197;PMS5003;57582;-34.876;138.628;2022-10-23T13:18:44;0.67;0.00;0.00
70197;PMS5003;57582;-34.876;138.628;2022-10-23T13:21:45;0.77;0.63;0.00
70197;PMS5003;57582;-34.876;138.628;2022-10-23T13:24:44;0.10;0.10;0.00
70197;PMS5003;57582;-34.876;138.628;2022-10-23T13:27:44;0.00;0.00;0.00
70197;PMS5003;57582;-34.876;138.628;2022-10-23T13:30:44;0.10;0.10;0.00
70197;PMS5003;57582;-34.876;138.628;2022-10-23T13:39:44;0.00;0.00;0.00
70197;PMS5003;57582;-34.876;138.628;2022-10-23T13:42:47;0.00;0.00;0.00
70197;PMS5003;57582;-34.876;138.628;2022-10-23T13:45:44;0.10;0.10;0.07
70197;PMS5003;57582;-34.876;138.628;2022-10-23T13:48:45;0.67;0.67;0.00
70197;PMS5003;57582;-34.876;138.628;2022-10-23T13:51:50;0.00;0.00;0.00
70197;PMS5003;57582;-34.876;138.628;2022-10-23T13:54:44;0.03;0.03;0.00
70197;PMS5003;57582;-34.876;138.628;2022-10-23T13:57:44;0.20;0.00;0.00
70197;PMS5003;57582;-34.876;138.628;2022-10-23T14:00:45;0.63;0.00;0.00
70197;PMS5003;57582;-34.876;138.628;2022-10-23T14:03:44;0.43;0.03;0.00
70197;PMS5003;57582;-34.876;138.628;2022-10-23T14:06:44;0.07;0.00;0.00
70197;PMS5003;57582;-34.876;138.628;2022-10-23T14:09:44;0.50;0.00;0.00
70197;PMS5003;57582;-34.876;138.628;2022-10-23T14:12:45;0.00;0.00;0.00
70197;PMS5003;57582;-34.876;138.628;2022-10-23T14:15:51;0.00;0.00;0.00
70197;PMS5003;57582;-34.876;138.628;2022-10-23T14:18:44;0.00;0.00;0.00
70197;PMS5003;57582;-34.876;138.628;2022-10-23T14:21:44;0.00;0.00;0.00
70197;PMS5003;57582;-34.876;138.628;2022-10-23T14:24:44;0.00;0.00;0.00
70197;PMS5003;57582;-34.876;138.628;2022-10-23T14:27:44;0.80;0.00;0.00
70197;PMS5003;57582;-34.876;138.628;2022-10-23T14:30:44;0.33;0.00;0.00
70197;PMS5003;57582;-34.876;138.628;2022-10-23T14:33:45;0.00;0.00;0.00
70197;PMS5003;57582;-34.876;138.628;2022-10-23T14:36:44;0.00;0.00;0.00
70197;PMS5003;57582;-34.876;138.628;2022-10-23T14:39:45;0.00;0.00;0.00
70197;PMS5003;57582;-34.876;138.628;2022-10-23T14:42:44;0.00;0.00;0.00
70197;PMS5003;57582;-34.876;138.628;2022-10-23T14:45:44;0.00;0.00;0.00
70197;PMS5003;57582;-34.876;138.628;2022-10-23T14:48:45;0.00;0.00;0.00
70197;PMS5003;57582;-34.876;138.628;2022-10-23T14:51:45;0.00;0.00;0.00
70197;PMS5003;57582;-34.876;138.628;2022-10-23T14:54:44;0.00;0.00;0.00
70197;PMS5003;57582;-34.876;138.628;2022-10-23T14:57:44;0.00;0.00;0.00
70197;PMS5003;57582;-34.876;138.628;2022-10-23T15:00:44;0.00;0.00;0.00
70197;PMS5003;57582;-34.876;138.628;2022-10-23T15:03:44;0.00;0.00;0.00
70197;PMS5003;57582;-34.876;138.628;2022-10-23T15:06:44;0.00;0.00;0.00
70197;PMS5003;57582;-34.876;138.628;2022-10-23T15:09:44;0.00;0.00;0.00
70197;PMS5003;57582;-34.876;138.628;2022-10-23T15:12:44;0.00;0.00;0.00
70197;PMS5003;57582;-34.876;138.628;2022-10-23T15:15:44;0.00;0.00;0.00
70197;PMS5003;57582;-34.876;138.628;2022-10-23T15:18:44;0.00;0.00;0.00
70197;PMS5003;57582;-34.876;138.628;2022-10-23T15:21:46;0.00;0.00;0.00
70197;PMS5003;57582;-34.876;138.628;2022-10-23T15:24:45;0.00;0.00;0.00
70197;PMS5003;57582;-34.876;138.628;2022-10-23T15:27:44;0.00;0.00;0.00
70197;PMS5003;57582;-34.876;138.628;2022-10-23T15:30:44;0.00;0.00;0.00
70197;PMS5003;57582;-34.876;138.628;2022-10-23T15:33:44;0.00;0.00;0.00
70197;PMS5003;57582;-34.876;138.628;2022-10-23T15:36:46;0.00;0.00;0.00
70197;PMS5003;57582;-34.876;138.628;2022-10-23T15:39:45;0.00;0.00;0.00
70197;PMS5003;57582;-34.876;138.628;2022-10-23T15:42:44;0.00;0.00;0.00
70197;PMS5003;57582;-34.876;138.628;2022-10-23T15:45:44;0.00;0.00;0.00
70197;PMS5003;57582;-34.876;138.628;2022-10-23T15:48:44;0.00;0.00;0.00
70197;PMS5003;57582;-34.876;138.628;2022-10-23T15:51:45;0.00;0.00;0.00
70197;PMS5003;57582;-34.876;138.628;2022-10-23T15:54:44;0.00;0.00;0.00
70197;PMS5003;57582;-34.876;138.628;2022-10-23T15:57:44;0.00;0.00;0.00
70197;PMS5003;57582;-34.876;138.628;2022-10-23T16:00:44;0.00;0.00;0.00
70197;PMS5003;57582;-34.876;138.628;2022-10-23T16:03:45;0.00;0.00;0.00
70197;PMS5003;57582;-34.876;138.628;2022-10-23T16:06:44;0.00;0.00;0.00
70197;PMS5003;57582;-34.876;138.628;2022-10-23T16:09:44;0.00;0.00;0.00
70197;PMS5003;57582;-34.876;138.628;2022-10-23T16:12:44;0.00;0.00;0.00
70197;PMS5003;57582;-34.876;138.628;2022-10-23T16:15:44;0.00;0.00;0.00
70197;PMS5003;57582;-34.876;138.628;2022-10-23T16:18:44;0.00;0.00;0.00
70197;PMS5003;57582;-34.876;138.628;2022-10-23T16:21:44;0.00;0.00;0.00
70197;PMS5003;57582;-34.876;138.628;2022-10-23T16:24:44;0.00;0.00;0.00
70197;PMS5003;57582;-34.876;138.628;2022-10-23T16:27:45;0.00;0.00;0.00
70197;PMS5003;57582;-34.876;138.628;2022-10-23T16:30:44;0.00;0.00;0.00
70197;PMS5003;57582;-34.876;138.628;2022-10-23T16:33:44;0.00;0.00;0.00
70197;PMS5003;57582;-34.876;138.628;2022-10-23T16:36:45;0.00;0.00;0.00
70197;PMS5003;57582;-34.876;138.628;2022-10-23T16:39:44;0.00;0.00;0.00
70197;PMS5003;57582;-34.876;138.628;2022-10-23T16:42:44;0.00;0.00;0.00
70197;PMS5003;57582;-34.876;138.628;2022-10-23T16:45:44;0.00;0.00;0.00
70197;PMS5003;57582;-34.876;138.628;2022-10-23T16:48:45;0.33;0.00;0.00
70197;PMS5003;57582;-34.876;138.628;2022-10-23T16:51:45;0.00;0.00;0.00
70197;PMS5003;57582;-34.876;138.628;2022-10-23T16:54:44;0.00;0.00;0.00
70197;PMS5003;57582;-34.876;138.628;2022-10-23T16:57:44;0.00;0.00;0.00
70197;PMS5003;57582;-34.876;138.628;2022-10-23T17:00:45;0.00;0.00;0.00
70197;PMS5003;57582;-34.876;138.628;2022-10-23T17:03:46;0.00;0.00;0.00
70197;PMS5003;57582;-34.876;138.628;2022-10-23T17:06:44;0.00;0.00;0.00
70197;PMS5003;57582;-34.876;138.628;2022-10-23T17:09:44;0.00;0.00;0.00
70197;PMS5003;57582;-34.876;138.628;2022-10-23T17:12:44;0.00;0.00;0.00
70197;PMS5003;57582;-34.876;138.628;2022-10-23T17:15:44;0.00;0.00;0.00
70197;PMS5003;57582;-34.876;138.628;2022-10-23T17:18:45;0.00;0.00;0.00
70197;PMS5003;57582;-34.876;138.628;2022-10-23T17:21:44;0.00;0.00;0.00
70197;PMS5003;57582;-34.876;138.628;2022-10-23T17:24:45;0.00;0.00;0.00
70197;PMS5003;57582;-34.876;138.628;2022-10-23T17:27:45;0.00;0.00;0.00
70197;PMS5003;57582;-34.876;138.628;2022-10-23T17:30:44;0.00;0.00;0.00
70197;PMS5003;57582;-34.876;138.628;2022-10-23T17:33:45;0.00;0.00;0.00
70197;PMS5003;57582;-34.876;138.628;2022-10-23T17:36:48;0.00;0.00;0.00
70197;PMS5003;57582;-34.876;138.628;2022-10-23T17:39:45;0.00;0.00;0.00
70197;PMS5003;57582;-34.876;138.628;2022-10-23T17:42:44;0.00;0.00;0.00
70197;PMS5003;57582;-34.876;138.628;2022-10-23T17:45:44;0.00;0.00;0.00
70197;PMS5003;57582;-34.876;138.628;2022-10-23T17:48:46;0.00;0.00;0.00
70197;PMS5003;57582;-34.876;138.628;2022-10-23T17:51:45;0.00;0.00;0.00
70197;PMS5003;57582;-34.876;138.628;2022-10-23T17:54:44;0.00;0.00;0.00
70197;PMS5003;57582;-34.876;138.628;2022-10-23T17:57:44;0.00;0.00;0.00
70197;PMS5003;57582;-34.876;138.628;2022-10-23T18:00:44;0.40;0.00;0.00